Time;durP1;ratioP1;P1;durP2;ratioP2;P2;SDS_P1;SDS_P2;PMS_P1;PMS_P2;Temp;Humidity;BMP_temperature;BMP_pressure;BME280_temperature;BME280_humidity;BME280_pressure;Samples;Min_cycle;Max_cycle;Signal;HPM_P1;HPM_P2
2022/11/21 00:00:21;;;;;;;49.77;23.63;;;;;;;;;;5014368;28;20695;-69
2022/11/21 00:02:46;;;;;;;49.10;24.60;;;;;;;;;;5021023;28;20221;-69
2022/11/21 00:05:12;;;;;;;52.33;25.37;;;;;;;;;;5014144;28;20280;-69
2022/11/21 00:07:37;;;;;;;48.37;24.20;;;;;;;;;;5014724;28;20186;-69
2022/11/21 00:10:03;;;;;;;52.47;24.93;;;;;;;;;;5022016;28;20264;-69
2022/11/21 00:12:28;;;;;;;50.80;25.03;;;;;;;;;;5019116;28;20190;-69
2022/11/21 00:14:53;;;;;;;47.37;24.30;;;;;;;;;;5015044;28;20723;-69
2022/11/21 00:17:19;;;;;;;51.40;26.20;;;;;;;;;;5015223;28;20261;-69
2022/11/21 00:19:44;;;;;;;52.97;26.57;;;;;;;;;;5012236;28;20198;-69
2022/11/21 00:22:09;;;;;;;53.67;26.87;;;;;;;;;;5022127;28;20187;-69
2022/11/21 00:24:35;;;;;;;55.80;26.47;;;;;;;;;;5029768;28;20265;-69
2022/11/21 00:27:00;;;;;;;50.70;25.87;;;;;;;;;;5012866;28;20205;-69
2022/11/21 00:29:25;;;;;;;58.03;28.20;;;;;;;;;;5029980;28;20229;-69
2022/11/21 00:31:51;;;;;;;57.33;27.80;;;;;;;;;;5025848;28;20207;-69
2022/11/21 00:34:16;;;;;;;57.93;27.73;;;;;;;;;;5016991;28;20187;-69
2022/11/21 00:36:41;;;;;;;57.50;27.50;;;;;;;;;;5013172;28;20238;-69
2022/11/21 00:39:07;;;;;;;58.03;28.10;;;;;;;;;;5030481;28;20268;-69
2022/11/21 00:41:32;;;;;;;58.97;28.13;;;;;;;;;;5026691;28;20217;-69
2022/11/21 00:43:58;;;;;;;54.40;27.27;;;;;;;;;;5019415;28;20190;-69
2022/11/21 00:46:23;;;;;;;57.67;27.70;;;;;;;;;;5024148;28;20764;-68
2022/11/21 00:48:48;;;;;;;56.53;27.83;;;;;;;;;;5019305;28;20263;-68
2022/11/21 00:51:13;;;;;;;58.40;28.37;;;;;;;;;;5015927;28;20272;-68
2022/11/21 00:53:39;;;;;;;61.13;29.17;;;;;;;;;;5016341;28;20273;-68
2022/11/21 00:56:04;;;;;;;67.07;31.50;;;;;;;;;;5030580;28;20268;-68
2022/11/21 00:58:30;;;;;;;60.00;28.93;;;;;;;;;;5029947;28;20186;-68
2022/11/21 01:01:08;;;;;;;61.90;28.43;;;;;;;;;;5029361;28;20188;-68
2022/11/21 01:03:34;;;;;;;59.47;28.03;;;;;;;;;;5025496;28;20303;-68
2022/11/21 01:06:11;;;;;;;60.50;26.00;;;;;;;;;;5013575;28;20479;-68
2022/11/21 01:08:39;;;;;;;63.87;28.33;;;;;;;;;;5014050;28;20639;-68
2022/11/21 01:11:06;;;;;;;69.20;30.17;;;;;;;;;;5015763;28;20240;-68
2022/11/21 01:13:33;;;;;;;73.63;32.17;;;;;;;;;;5019490;28;20194;-68
2022/11/21 01:16:18;;;;;;;74.33;32.00;;;;;;;;;;5028810;28;20182;-68
2022/11/21 01:18:44;;;;;;;69.93;31.57;;;;;;;;;;5020941;28;20202;-68
2022/11/21 01:21:17;;;;;;;76.27;31.87;;;;;;;;;;5028070;28;20691;-68
2022/11/21 01:23:43;;;;;;;73.50;34.07;;;;;;;;;;5029793;28;20186;-68
2022/11/21 01:26:11;;;;;;;76.50;32.13;;;;;;;;;;5020288;28;20528;-68
2022/11/21 01:28:37;;;;;;;71.13;32.57;;;;;;;;;;5028568;28;20236;-68
2022/11/21 01:31:08;;;;;;;79.00;32.67;;;;;;;;;;5011780;28;20207;-68
2022/11/21 01:33:34;;;;;;;83.27;34.97;;;;;;;;;;5017983;28;20202;-68
2022/11/21 01:36:12;;;;;;;77.07;33.70;;;;;;;;;;5014175;28;20317;-69
2022/11/21 01:38:39;;;;;;;70.17;31.17;;;;;;;;;;5017936;28;20201;-68
2022/11/21 01:41:05;;;;;;;77.97;34.63;;;;;;;;;;5012426;28;20186;-68
2022/11/21 01:43:31;;;;;;;79.97;33.67;;;;;;;;;;5016415;28;20182;-68
2022/11/21 01:45:59;;;;;;;75.37;34.90;;;;;;;;;;5019207;28;20187;-68
2022/11/21 01:48:34;;;;;;;76.93;32.47;;;;;;;;;;5020423;28;20591;-68
2022/11/21 01:51:13;;;;;;;70.73;32.27;;;;;;;;;;5017740;28;20205;-68
2022/11/21 01:53:41;;;;;;;72.13;30.63;;;;;;;;;;5024114;28;20179;-68
2022/11/21 01:56:08;;;;;;;72.13;32.23;;;;;;;;;;5008566;28;20273;-68
2022/11/21 01:58:34;;;;;;;68.87;33.03;;;;;;;;;;5014042;28;20174;-68
2022/11/21 02:01:01;;;;;;;73.10;33.47;;;;;;;;;;5013619;28;20273;-69
2022/11/21 02:03:29;;;;;;;64.33;31.23;;;;;;;;;;5029033;28;20240;-69
2022/11/21 02:05:55;;;;;;;75.63;33.37;;;;;;;;;;5009131;28;20199;-69
2022/11/21 02:08:24;;;;;;;76.30;34.40;;;;;;;;;;5016594;28;20178;-68
2022/11/21 02:11:00;;;;;;;65.07;30.10;;;;;;;;;;5009631;28;20205;-69
2022/11/21 02:13:26;;;;;;;70.53;32.30;;;;;;;;;;5024807;28;20273;-69
2022/11/21 02:15:53;;;;;;;70.97;32.47;;;;;;;;;;5027892;28;20185;-69
2022/11/21 02:18:18;;;;;;;71.10;31.17;;;;;;;;;;5024325;28;20181;-69
2022/11/21 02:20:47;;;;;;;70.60;31.53;;;;;;;;;;5016814;28;20631;-69
2022/11/21 02:23:23;;;;;;;70.03;32.20;;;;;;;;;;5012019;28;20507;-69
2022/11/21 02:25:50;;;;;;;69.47;31.17;;;;;;;;;;5025594;28;20497;-69
2022/11/21 02:28:19;;;;;;;73.40;31.80;;;;;;;;;;5027949;28;20265;-69
2022/11/21 02:30:45;;;;;;;65.57;30.33;;;;;;;;;;5028623;28;20563;-69
2022/11/21 02:33:11;;;;;;;67.13;28.63;;;;;;;;;;5023491;28;20724;-69
2022/11/21 02:35:37;;;;;;;71.40;31.47;;;;;;;;;;5011942;28;20642;-68
2022/11/21 02:38:25;;;;;;;68.83;31.13;;;;;;;;;;5020313;28;20175;-69
2022/11/21 02:40:56;;;;;;;67.60;29.63;;;;;;;;;;5027156;28;20265;-68
2022/11/21 02:43:24;;;;;;;62.47;29.17;;;;;;;;;;5023693;28;20188;-69
2022/11/21 02:45:49;;;;;;;68.23;31.47;;;;;;;;;;5020595;28;20276;-69
2022/11/21 02:48:15;;;;;;;73.27;32.20;;;;;;;;;;5017096;28;21708;-69
2022/11/21 02:50:42;;;;;;;70.00;32.37;;;;;;;;;;5023626;28;20218;-69
2022/11/21 02:53:10;;;;;;;62.80;31.07;;;;;;;;;;5022181;28;20647;-69
2022/11/21 02:55:35;;;;;;;65.47;30.20;;;;;;;;;;5017671;28;20179;-69
2022/11/21 02:58:01;;;;;;;65.77;30.40;;;;;;;;;;5021349;28;20193;-69
2022/11/21 03:00:26;;;;;;;73.03;31.53;;;;;;;;;;5019971;28;20202;-69
2022/11/21 03:02:55;;;;;;;65.23;29.60;;;;;;;;;;5021698;28;20190;-68
2022/11/21 03:05:21;;;;;;;63.00;29.50;;;;;;;;;;5018892;28;20187;-69
2022/11/21 03:07:46;;;;;;;64.77;31.13;;;;;;;;;;5022432;28;20182;-68
2022/11/21 03:10:12;;;;;;;59.37;29.00;;;;;;;;;;5028517;28;20201;-68
2022/11/21 03:12:39;;;;;;;69.37;32.73;;;;;;;;;;5023793;28;20260;-69
2022/11/21 03:15:07;;;;;;;68.37;32.53;;;;;;;;;;5031240;28;20653;-68
2022/11/21 03:17:32;;;;;;;71.20;31.00;;;;;;;;;;5023329;28;20266;-68
2022/11/21 03:19:58;;;;;;;67.73;31.20;;;;;;;;;;5030985;28;20261;-68
2022/11/21 03:22:23;;;;;;;64.33;30.33;;;;;;;;;;5030691;28;20194;-68
2022/11/21 03:24:49;;;;;;;59.80;27.20;;;;;;;;;;5022710;28;20182;-69
2022/11/21 03:27:14;;;;;;;68.27;31.03;;;;;;;;;;5028270;28;20490;-69
2022/11/21 03:29:39;;;;;;;67.43;31.13;;;;;;;;;;5028943;28;20260;-69
2022/11/21 03:32:05;;;;;;;63.90;31.30;;;;;;;;;;5030173;28;20220;-69
2022/11/21 03:34:30;;;;;;;77.17;33.63;;;;;;;;;;5024022;28;20212;-68
2022/11/21 03:36:56;;;;;;;65.20;31.73;;;;;;;;;;5011118;28;20288;-68
2022/11/21 03:39:21;;;;;;;62.67;31.97;;;;;;;;;;5012858;28;20174;-68
2022/11/21 03:41:46;;;;;;;62.83;31.03;;;;;;;;;;5024567;28;20254;-69
2022/11/21 03:44:12;;;;;;;70.30;31.17;;;;;;;;;;5020406;28;20190;-69
2022/11/21 03:46:39;;;;;;;70.83;32.07;;;;;;;;;;5013479;28;20284;-69
2022/11/21 03:49:06;;;;;;;67.07;31.53;;;;;;;;;;5026390;28;20190;-69
2022/11/21 03:51:32;;;;;;;63.97;31.70;;;;;;;;;;5018492;28;20227;-68
2022/11/21 03:53:57;;;;;;;55.87;28.03;;;;;;;;;;5016714;28;20187;-68
2022/11/21 03:56:23;;;;;;;67.03;29.97;;;;;;;;;;5017047;28;20186;-69
2022/11/21 03:58:49;;;;;;;61.07;29.77;;;;;;;;;;5016228;28;20190;-69
2022/11/21 04:01:15;;;;;;;65.07;30.73;;;;;;;;;;5019169;28;20175;-69
2022/11/21 04:03:41;;;;;;;63.20;30.10;;;;;;;;;;5016770;28;20178;-68
2022/11/21 04:06:07;;;;;;;63.23;29.23;;;;;;;;;;5028564;28;20243;-68
2022/11/21 04:08:32;;;;;;;63.17;29.87;;;;;;;;;;5011345;28;20414;-68
2022/11/21 04:10:58;;;;;;;67.73;30.03;;;;;;;;;;5028626;28;20669;-68
2022/11/21 04:13:23;;;;;;;59.80;28.37;;;;;;;;;;5015192;28;20185;-68
2022/11/21 04:15:49;;;;;;;67.07;30.30;;;;;;;;;;5026175;28;20257;-68
2022/11/21 04:18:14;;;;;;;62.03;29.30;;;;;;;;;;5018155;28;20179;-68
2022/11/21 04:20:40;;;;;;;63.73;30.23;;;;;;;;;;5020110;28;20221;-68
2022/11/21 04:23:05;;;;;;;59.23;28.67;;;;;;;;;;5016465;28;20205;-68
2022/11/21 04:25:31;;;;;;;64.30;30.30;;;;;;;;;;5014140;28;20179;-68
2022/11/21 04:27:58;;;;;;;61.87;29.37;;;;;;;;;;5023229;28;20523;-68
2022/11/21 04:30:23;;;;;;;63.70;30.47;;;;;;;;;;5015741;28;20202;-69
2022/11/21 04:32:52;;;;;;;62.10;29.80;;;;;;;;;;5028409;28;20202;-69
2022/11/21 04:35:18;;;;;;;66.87;28.00;;;;;;;;;;5023401;28;20511;-68
2022/11/21 04:37:44;;;;;;;61.63;28.27;;;;;;;;;;5023811;28;20197;-68
2022/11/21 04:40:10;;;;;;;65.93;28.20;;;;;;;;;;5027565;28;20586;-68
2022/11/21 04:42:35;;;;;;;64.60;28.33;;;;;;;;;;5022925;28;20187;-69
2022/11/21 04:45:00;;;;;;;65.17;29.27;;;;;;;;;;5011078;28;20179;-69
2022/11/21 04:47:26;;;;;;;69.67;28.00;;;;;;;;;;5013933;28;20256;-69
2022/11/21 04:49:51;;;;;;;71.97;29.87;;;;;;;;;;5020810;28;20681;-69
2022/11/21 04:52:16;;;;;;;71.60;30.77;;;;;;;;;;5013333;28;20182;-69
2022/11/21 04:54:42;;;;;;;65.80;29.87;;;;;;;;;;5020858;28;20195;-69
2022/11/21 04:57:07;;;;;;;64.40;28.17;;;;;;;;;;5012516;28;20187;-69
2022/11/21 04:59:33;;;;;;;72.30;30.47;;;;;;;;;;5020808;28;20209;-69
2022/11/21 05:01:58;;;;;;;72.47;30.70;;;;;;;;;;5020089;28;20237;-69
2022/11/21 05:04:24;;;;;;;77.10;30.67;;;;;;;;;;5026707;28;20197;-69
2022/11/21 05:06:49;;;;;;;78.43;31.47;;;;;;;;;;5015379;28;20182;-69
2022/11/21 05:09:14;;;;;;;73.90;31.00;;;;;;;;;;5012620;28;20194;-68
2022/11/21 05:14:25;;;;;;;76.80;31.37;;;;;;;;;;5017728;28;20620;-69
2022/11/21 05:16:51;;;;;;;79.27;32.33;;;;;;;;;;5026459;28;20186;-69
2022/11/21 05:19:16;;;;;;;75.97;33.47;;;;;;;;;;5020408;28;20273;-69
2022/11/21 05:21:41;;;;;;;81.97;33.43;;;;;;;;;;5020770;28;20258;-69
2022/11/21 05:24:07;;;;;;;87.70;34.87;;;;;;;;;;5014598;28;20186;-69
2022/11/21 05:26:32;;;;;;;79.20;34.33;;;;;;;;;;5013703;28;20198;-69
2022/11/21 05:28:57;;;;;;;77.97;32.13;;;;;;;;;;5020464;28;20213;-69
2022/11/21 05:31:23;;;;;;;71.07;31.83;;;;;;;;;;5012548;28;20210;-69
2022/11/21 05:33:48;;;;;;;68.17;31.93;;;;;;;;;;5022745;28;20182;-69
2022/11/21 05:36:13;;;;;;;80.07;31.93;;;;;;;;;;5017610;28;20238;-69
2022/11/21 05:38:39;;;;;;;79.70;33.00;;;;;;;;;;5013898;28;20183;-69
2022/11/21 05:41:04;;;;;;;68.33;30.60;;;;;;;;;;5012638;28;20336;-69
2022/11/21 05:43:44;;;;;;;80.60;27.63;;;;;;;;;;5013933;28;20189;-69
2022/11/21 05:46:15;;;;;;;80.53;29.70;;;;;;;;;;5017931;28;20580;-69
2022/11/21 05:48:40;;;;;;;85.13;30.13;;;;;;;;;;5012929;28;20528;-68
2022/11/21 05:51:06;;;;;;;130.93;31.13;;;;;;;;;;5013500;28;20215;-68
2022/11/21 05:53:32;;;;;;;384.47;42.00;;;;;;;;;;5011064;28;20253;-68
2022/11/21 05:56:07;;;;;;;228.23;33.50;;;;;;;;;;5017804;28;20183;-68
2022/11/21 05:58:32;;;;;;;219.13;32.53;;;;;;;;;;5009374;28;20193;-68
2022/11/21 06:00:58;;;;;;;95.00;32.93;;;;;;;;;;5016325;28;20682;-68
2022/11/21 06:03:30;;;;;;;139.70;30.60;;;;;;;;;;5013708;28;20321;-68
2022/11/21 06:06:10;;;;;;;153.93;33.47;;;;;;;;;;5015692;28;20178;-68
2022/11/21 06:08:44;;;;;;;82.07;29.80;;;;;;;;;;5022541;28;20257;-68
2022/11/21 06:11:14;;;;;;;76.87;28.83;;;;;;;;;;5020764;28;20209;-68
2022/11/21 06:13:39;;;;;;;149.33;32.50;;;;;;;;;;5018139;28;20186;-68
2022/11/21 06:16:09;;;;;;;88.47;32.63;;;;;;;;;;5017122;28;20190;-68
2022/11/21 06:18:37;;;;;;;69.00;30.43;;;;;;;;;;5013899;28;20587;-68
2022/11/21 06:21:19;;;;;;;86.97;35.17;;;;;;;;;;5019347;28;20185;-68
2022/11/21 06:23:45;;;;;;;78.07;31.97;;;;;;;;;;5015002;28;20186;-68
2022/11/21 06:26:13;;;;;;;85.73;31.93;;;;;;;;;;5020783;28;20642;-68
2022/11/21 06:28:40;;;;;;;96.90;36.70;;;;;;;;;;5024165;28;20247;-68
2022/11/21 06:31:08;;;;;;;110.40;40.43;;;;;;;;;;5024239;28;20194;-68
2022/11/21 06:33:34;;;;;;;155.03;41.10;;;;;;;;;;5017399;28;20233;-68
2022/11/21 06:36:04;;;;;;;128.60;38.57;;;;;;;;;;5021793;28;20255;-68
2022/11/21 06:38:29;;;;;;;146.40;39.77;;;;;;;;;;5022563;28;20552;-68
2022/11/21 06:40:55;;;;;;;189.47;42.00;;;;;;;;;;5023961;28;20186;-68
2022/11/21 06:43:20;;;;;;;124.53;36.77;;;;;;;;;;5015362;28;20185;-68
2022/11/21 06:45:45;;;;;;;161.00;37.47;;;;;;;;;;5016975;28;20214;-68
2022/11/21 06:48:11;;;;;;;113.90;38.27;;;;;;;;;;5009730;28;20670;-68
2022/11/21 06:50:37;;;;;;;148.97;37.87;;;;;;;;;;5008241;28;20211;-68
2022/11/21 06:53:03;;;;;;;161.97;39.47;;;;;;;;;;5012692;28;20252;-68
2022/11/21 06:55:30;;;;;;;173.20;40.57;;;;;;;;;;5011111;28;20265;-68
2022/11/21 06:57:58;;;;;;;137.77;38.97;;;;;;;;;;5010050;28;20567;-68
2022/11/21 07:00:26;;;;;;;111.70;35.53;;;;;;;;;;5016116;28;20200;-68
2022/11/21 07:02:52;;;;;;;129.73;34.30;;;;;;;;;;5007985;28;20658;-68
2022/11/21 07:05:18;;;;;;;112.20;32.97;;;;;;;;;;5005851;28;20181;-68
2022/11/21 07:07:43;;;;;;;130.10;35.30;;;;;;;;;;5008503;28;20193;-68
2022/11/21 07:10:09;;;;;;;130.70;33.83;;;;;;;;;;5016379;28;20308;-68
2022/11/21 07:15:18;;;;;;;100.67;30.10;;;;;;;;;;5022118;28;20193;-68
2022/11/21 07:17:44;;;;;;;126.33;33.47;;;;;;;;;;5015989;28;20183;-68
2022/11/21 07:20:10;;;;;;;123.90;33.67;;;;;;;;;;5017413;28;20179;-68
2022/11/21 07:22:35;;;;;;;143.90;32.07;;;;;;;;;;5021268;28;20547;-68
2022/11/21 07:25:00;;;;;;;124.33;32.00;;;;;;;;;;5014646;28;20268;-68
2022/11/21 07:27:26;;;;;;;104.80;31.13;;;;;;;;;;5017550;28;20183;-68
2022/11/21 07:29:51;;;;;;;107.37;32.33;;;;;;;;;;5009367;28;20179;-68
2022/11/21 07:32:16;;;;;;;181.80;34.63;;;;;;;;;;5015342;28;20800;-68
2022/11/21 07:34:42;;;;;;;119.43;29.83;;;;;;;;;;5009897;28;20292;-68
2022/11/21 07:37:07;;;;;;;175.93;34.90;;;;;;;;;;5011449;28;20280;-68
2022/11/21 07:39:32;;;;;;;177.57;32.60;;;;;;;;;;5012779;28;20201;-68
2022/11/21 07:41:58;;;;;;;120.40;29.47;;;;;;;;;;5014027;28;20210;-68
2022/11/21 07:44:23;;;;;;;132.27;29.60;;;;;;;;;;5016462;28;20213;-68
2022/11/21 07:46:48;;;;;;;219.57;29.97;;;;;;;;;;5008180;28;20293;-68
2022/11/21 07:49:14;;;;;;;134.77;25.77;;;;;;;;;;5022467;28;20209;-68
2022/11/21 07:51:39;;;;;;;167.17;26.70;;;;;;;;;;5022419;28;20210;-68
2022/11/21 07:54:04;;;;;;;264.87;30.33;;;;;;;;;;5024257;28;20387;-68
2022/11/21 07:56:30;;;;;;;123.90;27.20;;;;;;;;;;5024098;28;20184;-68
2022/11/21 07:58:55;;;;;;;175.83;28.60;;;;;;;;;;5021084;28;20189;-68
2022/11/21 08:01:20;;;;;;;151.63;25.77;;;;;;;;;;5025163;28;20258;-68
2022/11/21 08:03:46;;;;;;;147.50;28.27;;;;;;;;;;5025140;28;20194;-68
2022/11/21 08:06:12;;;;;;;177.07;28.63;;;;;;;;;;5023508;28;20178;-68
2022/11/21 08:08:37;;;;;;;116.53;26.60;;;;;;;;;;5016252;28;20248;-68
2022/11/21 08:11:04;;;;;;;112.90;29.00;;;;;;;;;;5028835;28;20201;-68
2022/11/21 08:13:30;;;;;;;116.63;27.13;;;;;;;;;;5015152;28;20189;-69
2022/11/21 08:15:55;;;;;;;145.97;25.80;;;;;;;;;;5024198;28;20182;-68
2022/11/21 08:18:20;;;;;;;118.27;25.23;;;;;;;;;;5029095;28;20272;-68
2022/11/21 08:20:46;;;;;;;102.67;24.77;;;;;;;;;;5022598;28;20801;-68
2022/11/21 08:23:11;;;;;;;137.77;27.40;;;;;;;;;;5018241;28;20184;-68
2022/11/21 08:25:37;;;;;;;87.50;25.20;;;;;;;;;;5016742;28;20175;-69
2022/11/21 08:28:03;;;;;;;110.87;26.77;;;;;;;;;;5013678;28;20265;-68
2022/11/21 08:30:29;;;;;;;77.40;26.17;;;;;;;;;;5019436;28;20305;-68
2022/11/21 08:32:56;;;;;;;80.23;26.00;;;;;;;;;;5028419;28;20241;-69
2022/11/21 08:35:22;;;;;;;69.33;24.77;;;;;;;;;;5017036;28;20177;-69
2022/11/21 08:37:47;;;;;;;90.83;26.73;;;;;;;;;;5010447;28;20212;-69
2022/11/21 08:40:13;;;;;;;81.53;24.17;;;;;;;;;;5019152;28;20187;-69
2022/11/21 08:42:38;;;;;;;113.80;27.23;;;;;;;;;;5020975;28;20209;-69
2022/11/21 08:45:04;;;;;;;79.00;25.40;;;;;;;;;;5016203;28;20186;-69
2022/11/21 08:47:32;;;;;;;84.30;25.80;;;;;;;;;;5018425;28;20227;-69
2022/11/21 08:49:57;;;;;;;64.63;23.40;;;;;;;;;;5026809;28;20174;-69
2022/11/21 08:52:22;;;;;;;57.50;23.83;;;;;;;;;;5016740;28;20665;-69
2022/11/21 08:54:48;;;;;;;53.43;22.47;;;;;;;;;;5018780;28;20183;-69
2022/11/21 08:57:13;;;;;;;64.03;24.37;;;;;;;;;;5019989;28;20186;-69
2022/11/21 08:59:39;;;;;;;51.10;23.53;;;;;;;;;;5016314;28;20637;-69
2022/11/21 09:02:04;;;;;;;48.33;22.17;;;;;;;;;;5017436;28;20207;-69
2022/11/21 09:04:29;;;;;;;50.60;22.53;;;;;;;;;;5019964;28;20178;-69
2022/11/21 09:06:55;;;;;;;50.83;23.90;;;;;;;;;;5022034;28;20248;-69
2022/11/21 09:09:20;;;;;;;53.30;23.63;;;;;;;;;;5018211;28;20178;-69
2022/11/21 09:11:45;;;;;;;55.37;23.43;;;;;;;;;;5024119;28;20202;-69
2022/11/21 09:19:49;;;;;;;45.93;22.30;;;;;;;;;;5016428;28;20265;-70
2022/11/21 09:22:14;;;;;;;60.57;23.50;;;;;;;;;;5028662;28;20277;-69
2022/11/21 09:24:39;;;;;;;58.00;23.70;;;;;;;;;;5014286;28;20174;-69
2022/11/21 09:27:05;;;;;;;46.30;23.20;;;;;;;;;;5028049;28;20584;-69
2022/11/21 09:29:30;;;;;;;48.10;23.70;;;;;;;;;;5024480;28;20179;-69
2022/11/21 09:31:55;;;;;;;40.93;21.93;;;;;;;;;;5018484;28;20217;-70
2022/11/21 09:34:21;;;;;;;41.60;22.43;;;;;;;;;;5029436;28;20186;-69
2022/11/21 09:36:46;;;;;;;41.30;21.40;;;;;;;;;;5011433;28;20310;-70
2022/11/21 09:39:12;;;;;;;41.80;21.40;;;;;;;;;;5021110;28;20185;-69
2022/11/21 09:41:54;;;;;;;43.20;22.13;;;;;;;;;;5014878;28;20217;-70
2022/11/21 09:44:26;;;;;;;40.70;20.90;;;;;;;;;;5024292;28;20243;-70
2022/11/21 09:46:59;;;;;;;40.37;21.83;;;;;;;;;;5012284;28;20185;-70
2022/11/21 09:49:25;;;;;;;44.77;22.20;;;;;;;;;;5008213;28;20663;-70
2022/11/21 09:51:51;;;;;;;49.77;22.73;;;;;;;;;;5022375;28;20290;-70
2022/11/21 09:54:27;;;;;;;45.40;23.23;;;;;;;;;;5009786;28;20185;-71
2022/11/21 09:56:53;;;;;;;47.23;24.30;;;;;;;;;;5022024;28;20217;-70
2022/11/21 09:59:35;;;;;;;46.00;23.77;;;;;;;;;;5015053;28;20236;-70
2022/11/21 10:02:02;;;;;;;50.50;23.80;;;;;;;;;;5018310;28;20177;-70
2022/11/21 10:04:28;;;;;;;41.37;22.10;;;;;;;;;;5018986;28;20204;-70
2022/11/21 10:07:03;;;;;;;43.37;22.10;;;;;;;;;;5011979;28;20265;-71
2022/11/21 10:09:55;;;;;;;36.10;20.63;;;;;;;;;;5018724;28;20181;-71
2022/11/21 10:12:41;;;;;;;35.57;18.77;;;;;;;;;;5026980;28;20186;-70
2022/11/21 10:15:25;;;;;;;36.37;19.93;;;;;;;;;;5012864;28;20190;-71
2022/11/21 10:18:27;;;;;;;34.93;18.60;;;;;;;;;;5028878;28;20183;-72
2022/11/21 10:21:21;;;;;;;33.60;17.97;;;;;;;;;;5023265;28;20645;-72
2022/11/21 10:23:46;;;;;;;32.20;17.60;;;;;;;;;;5025918;28;20244;-71
2022/11/21 10:26:27;;;;;;;30.03;17.13;;;;;;;;;;5028006;28;20190;-72
2022/11/21 10:29:11;;;;;;;29.23;16.60;;;;;;;;;;5016495;28;20208;-72
2022/11/21 10:31:39;;;;;;;30.50;17.10;;;;;;;;;;5022947;28;20225;-71
2022/11/21 10:34:11;;;;;;;30.27;16.80;;;;;;;;;;5011510;28;20269;-71
2022/11/21 10:36:39;;;;;;;28.13;15.67;;;;;;;;;;5021272;28;20237;-72
2022/11/21 10:39:21;;;;;;;29.47;16.03;;;;;;;;;;5017171;28;20251;-72
2022/11/21 10:42:15;;;;;;;25.63;15.73;;;;;;;;;;5014735;28;20235;-72
2022/11/21 10:47:31;;;;;;;28.07;15.97;;;;;;;;;;5017292;28;20201;-71
2022/11/21 10:50:09;;;;;;;25.03;14.43;;;;;;;;;;5010285;28;20618;-71
2022/11/21 10:56:02;;;;;;;26.83;15.30;;;;;;;;;;5015127;28;20252;-72
2022/11/21 10:58:48;;;;;;;25.27;14.73;;;;;;;;;;5018648;28;20209;-71
2022/11/21 11:01:30;;;;;;;23.47;13.83;;;;;;;;;;5010753;28;20570;-71
2022/11/21 11:04:11;;;;;;;25.97;15.00;;;;;;;;;;5011569;28;20566;-71
2022/11/21 11:06:38;;;;;;;25.60;14.53;;;;;;;;;;5017579;28;20657;-70
2022/11/21 11:09:06;;;;;;;29.33;16.17;;;;;;;;;;5018841;28;20194;-70
2022/11/21 11:11:32;;;;;;;25.33;15.23;;;;;;;;;;5026149;28;20661;-70
2022/11/21 11:13:59;;;;;;;24.53;15.17;;;;;;;;;;5018860;28;20673;-71
2022/11/21 11:16:27;;;;;;;26.37;15.07;;;;;;;;;;5010252;28;20471;-72
2022/11/21 11:19:03;;;;;;;27.50;16.07;;;;;;;;;;5022058;28;20189;-70
2022/11/21 11:21:40;;;;;;;25.83;15.50;;;;;;;;;;5011904;28;20181;-71
2022/11/21 11:24:08;;;;;;;29.57;15.93;;;;;;;;;;5004984;28;20201;-71
2022/11/21 11:26:48;;;;;;;25.47;15.03;;;;;;;;;;5014653;28;20190;-72
2022/11/21 11:29:14;;;;;;;28.73;15.80;;;;;;;;;;5017042;28;20190;-71
2022/11/21 11:31:41;;;;;;;27.57;15.43;;;;;;;;;;5028693;28;20312;-71
2022/11/21 11:34:11;;;;;;;25.67;15.00;;;;;;;;;;5031648;28;20196;-71
2022/11/21 11:36:46;;;;;;;29.43;16.23;;;;;;;;;;5012757;28;20230;-72
2022/11/21 11:40:00;;;;;;;28.37;15.90;;;;;;;;;;5026805;28;20239;-72
2022/11/21 11:50:09;;;;;;;26.33;13.97;;;;;;;;;;5022313;28;20697;-69
2022/11/21 11:52:27;;;;;;;22.63;13.80;;;;;;;;;;5019611;28;20233;-68
2022/11/21 11:55:00;;;;;;;24.33;13.87;;;;;;;;;;5017259;28;20718;-69
2022/11/21 11:57:30;;;;;;;24.07;13.60;;;;;;;;;;5028889;28;20626;-69
2022/11/21 12:01:00;;;;;;;21.53;12.73;;;;;;;;;;5016949;28;20191;-70
2022/11/21 12:04:03;;;;;;;22.20;13.63;;;;;;;;;;5031039;28;20197;-69
2022/11/21 12:07:13;;;;;;;24.37;12.93;;;;;;;;;;5035004;28;20194;-69
2022/11/21 12:09:58;;;;;;;27.57;13.97;;;;;;;;;;5014995;28;20698;-69
2022/11/21 12:12:46;;;;;;;25.43;13.83;;;;;;;;;;5011451;28;20297;-69
2022/11/21 12:15:51;;;;;;;25.07;13.17;;;;;;;;;;5025773;28;20544;-70
2022/11/21 12:18:22;;;;;;;26.50;13.97;;;;;;;;;;5027638;28;20676;-69
2022/11/21 12:20:56;;;;;;;29.47;15.13;;;;;;;;;;5030857;28;20190;-69
2022/11/21 12:23:30;;;;;;;26.37;13.77;;;;;;;;;;5023135;28;20575;-69
2022/11/21 12:26:25;;;;;;;28.47;14.90;;;;;;;;;;5018465;28;20195;-69
2022/11/21 12:29:14;;;;;;;31.70;15.73;;;;;;;;;;5026913;28;20185;-68
2022/11/21 12:32:14;;;;;;;34.57;16.33;;;;;;;;;;5016058;28;20215;-68
2022/11/21 12:35:08;;;;;;;36.10;17.47;;;;;;;;;;5015323;28;20264;-68
2022/11/21 12:38:15;;;;;;;41.80;18.23;;;;;;;;;;5029726;28;20226;-68
2022/11/21 12:44:45;;;;;;;43.50;18.47;;;;;;;;;;5017237;28;20317;-67
2022/11/21 12:56:49;;;;;;;51.40;20.50;;;;;;;;;;5008961;28;20193;-68
2022/11/21 12:59:15;;;;;;;45.80;19.50;;;;;;;;;;5024664;28;20514;-67
2022/11/21 13:02:03;;;;;;;47.57;20.70;;;;;;;;;;5020693;28;20601;-68
2022/11/21 13:04:35;;;;;;;44.63;19.90;;;;;;;;;;5018054;28;20186;-68
2022/11/21 13:07:02;;;;;;;49.30;21.43;;;;;;;;;;5012930;28;20261;-68
2022/11/21 13:09:36;;;;;;;51.27;21.23;;;;;;;;;;5024933;28;20204;-68
2022/11/21 13:12:12;;;;;;;50.57;21.63;;;;;;;;;;5029187;28;20569;-68
2022/11/21 13:14:50;;;;;;;56.83;23.20;;;;;;;;;;5018083;28;20506;-68
2022/11/21 13:17:28;;;;;;;56.03;22.50;;;;;;;;;;5026475;28;20259;-68
2022/11/21 13:20:00;;;;;;;59.80;23.77;;;;;;;;;;5009394;28;20189;-68
2022/11/21 13:22:35;;;;;;;61.00;23.70;;;;;;;;;;5010823;28;20193;-68
2022/11/21 13:25:07;;;;;;;65.43;23.97;;;;;;;;;;5015679;28;20254;-68
2022/11/21 13:27:36;;;;;;;68.50;24.97;;;;;;;;;;5027804;28;20629;-68
2022/11/21 13:30:14;;;;;;;67.50;24.73;;;;;;;;;;5025271;28;20202;-68
2022/11/21 13:32:54;;;;;;;77.93;26.17;;;;;;;;;;5018570;28;20220;-68
2022/11/21 13:35:19;;;;;;;80.77;26.43;;;;;;;;;;5008539;28;20698;-68
2022/11/21 13:37:51;;;;;;;81.43;26.43;;;;;;;;;;5011578;28;20272;-68
2022/11/21 13:40:25;;;;;;;83.13;27.43;;;;;;;;;;5010643;28;20191;-68
2022/11/21 13:43:20;;;;;;;82.07;25.33;;;;;;;;;;5022156;28;20208;-68
2022/11/21 13:45:51;;;;;;;85.27;27.90;;;;;;;;;;5012367;28;20257;-68
2022/11/21 13:48:39;;;;;;;73.73;24.77;;;;;;;;;;5022935;28;20199;-68
2022/11/21 13:51:13;;;;;;;90.87;28.67;;;;;;;;;;5011186;28;20214;-68
2022/11/21 13:54:05;;;;;;;91.50;28.57;;;;;;;;;;5023665;28;20197;-68
2022/11/21 13:56:36;;;;;;;83.93;26.87;;;;;;;;;;5017777;28;20183;-68
2022/11/21 13:59:39;;;;;;;95.10;28.63;;;;;;;;;;5021819;28;20186;-68
2022/11/21 14:02:29;;;;;;;88.50;27.17;;;;;;;;;;5021772;28;20666;-68
2022/11/21 14:05:25;;;;;;;93.70;28.53;;;;;;;;;;5013860;28;20190;-68
2022/11/21 14:07:51;;;;;;;90.23;27.40;;;;;;;;;;5014353;28;20396;-68
2022/11/21 14:10:32;;;;;;;102.60;30.50;;;;;;;;;;5026362;28;20190;-68
2022/11/21 14:13:00;;;;;;;97.57;29.30;;;;;;;;;;4322819;28;10000715;-68
2022/11/21 14:15:49;;;;;;;99.77;29.33;;;;;;;;;;5010016;28;20832;-68
2022/11/21 14:18:21;;;;;;;110.27;31.50;;;;;;;;;;5014535;28;20185;-68
2022/11/21 14:20:56;;;;;;;86.97;28.37;;;;;;;;;;5011975;28;20592;-68
2022/11/21 14:23:24;;;;;;;93.43;30.07;;;;;;;;;;5010669;28;20189;-68
2022/11/21 14:26:09;;;;;;;95.77;29.87;;;;;;;;;;5017772;28;20220;-68
2022/11/21 14:28:35;;;;;;;81.33;27.07;;;;;;;;;;5021381;28;20528;-69
2022/11/21 14:31:05;;;;;;;86.93;27.80;;;;;;;;;;5013319;28;20312;-69
2022/11/21 14:33:36;;;;;;;108.67;31.63;;;;;;;;;;5016000;28;20256;-68
2022/11/21 14:36:12;;;;;;;96.07;29.33;;;;;;;;;;5019274;28;20222;-68
2022/11/21 14:39:14;;;;;;;90.70;30.60;;;;;;;;;;5011446;28;20205;-68
2022/11/21 14:41:41;;;;;;;83.53;28.27;;;;;;;;;;5011880;28;20295;-68
2022/11/21 14:44:07;;;;;;;96.70;30.83;;;;;;;;;;5020340;28;20594;-69
2022/11/21 14:46:34;;;;;;;106.50;30.70;;;;;;;;;;5011599;28;20194;-69
2022/11/21 14:49:15;;;;;;;92.50;29.43;;;;;;;;;;5015370;28;20682;-69
2022/11/21 14:51:43;;;;;;;88.77;29.13;;;;;;;;;;5008804;28;20294;-69
2022/11/21 14:54:22;;;;;;;90.10;30.03;;;;;;;;;;5016768;28;20339;-69
2022/11/21 14:56:58;;;;;;;89.50;28.93;;;;;;;;;;5019983;28;20241;-69
2022/11/21 14:59:34;;;;;;;90.77;29.77;;;;;;;;;;5024112;28;20178;-69
2022/11/21 15:02:06;;;;;;;95.63;30.03;;;;;;;;;;5023926;28;20177;-69
2022/11/21 15:04:34;;;;;;;93.97;31.73;;;;;;;;;;5025375;28;20584;-69
2022/11/21 15:06:59;;;;;;;99.67;31.93;;;;;;;;;;5028585;28;20181;-69
2022/11/21 15:09:25;;;;;;;110.83;31.87;;;;;;;;;;5023851;28;20701;-69